createdAt,value
2023-09-17T00:01:22.088Z,98800.00
2023-09-17T00:03:49.640Z,98798.78
2023-09-17T00:06:16.845Z,98792.19
2023-09-17T00:08:43.776Z,98793.00
2023-09-17T00:11:11.132Z,98800.63
2023-09-17T00:13:39.625Z,98794.03
2023-09-17T00:16:07.044Z,98791.53
2023-09-17T00:18:35.487Z,98794.84
2023-09-17T00:21:02.373Z,98807.44
2023-09-17T00:23:29.351Z,98802.28
2023-09-17T00:25:56.388Z,98804.56
2023-09-17T00:28:23.715Z,98808.25
2023-09-17T00:30:50.827Z,98809.31
2023-09-17T00:33:17.757Z,98797.00
2023-09-17T00:35:46.238Z,98797.00
2023-09-17T00:38:13.118Z,98799.03
2023-09-17T00:40:41.451Z,98801.34
2023-09-17T00:43:09.641Z,98794.31
2023-09-17T00:45:36.895Z,98799.66
2023-09-17T00:48:05.068Z,98797.63
2023-09-17T00:50:32.497Z,98798.44
2023-09-17T00:53:01.781Z,98795.53
2023-09-17T00:55:30.992Z,98793.88
2023-09-17T00:58:00.185Z,98798.41
2023-09-17T01:00:27.978Z,98793.47
2023-09-17T01:02:56.098Z,98792.84
2023-09-17T01:05:23.768Z,98795.94
2023-09-17T01:07:51.201Z,98793.69
2023-09-17T01:10:22.761Z,98787.31
2023-09-17T01:12:49.836Z,98790.78
2023-09-17T01:15:17.011Z,98791.19
2023-09-17T01:17:44.030Z,98794.72
2023-09-17T01:20:27.006Z,98802.09
2023-09-17T01:23:00.347Z,98807.06
2023-09-17T01:25:41.972Z,98800.50
2023-09-17T01:28:13.504Z,98805.22
2023-09-17T01:30:43.777Z,98805.69
2023-09-17T01:33:11.113Z,98815.38
2023-09-17T01:35:49.150Z,98808.13
2023-09-17T01:38:19.933Z,98805.25
2023-09-17T01:40:49.763Z,98810.38
2023-09-17T01:43:19.511Z,98801.31
2023-09-17T01:45:47.610Z,98809.16
2023-09-17T01:48:16.645Z,98807.50
2023-09-17T01:50:43.839Z,98812.66
2023-09-17T01:53:13.061Z,98810.16
2023-09-17T01:55:42.986Z,98807.50
2023-09-17T01:58:12.668Z,98806.06
2023-09-17T02:00:41.046Z,98811.81
2023-09-17T02:03:09.516Z,98812.47
2023-09-17T02:05:36.702Z,98812.03
2023-09-17T02:08:05.057Z,98819.06
2023-09-17T02:10:32.372Z,98807.09
2023-09-17T02:12:59.565Z,98807.94
2023-09-17T02:15:26.844Z,98809.38
2023-09-17T02:17:55.140Z,98817.22
2023-09-17T02:20:22.202Z,98808.16
2023-09-17T02:22:51.061Z,98804.88
2023-09-17T02:25:18.896Z,98812.66
2023-09-17T02:27:47.590Z,98812.28
2023-09-17T02:30:14.609Z,98812.06
2023-09-17T02:32:42.940Z,98815.34
2023-09-17T02:35:11.282Z,98819.47
2023-09-17T02:37:39.564Z,98817.38
2023-09-17T02:40:10.255Z,98817.78
2023-09-17T02:42:38.242Z,98811.59
2023-09-17T02:45:07.227Z,98810.38
2023-09-17T02:47:37.142Z,98807.28
2023-09-17T02:50:06.132Z,98811.59
2023-09-17T02:52:35.594Z,98816.56
2023-09-17T02:55:05.853Z,98807.50
2023-09-17T02:57:32.968Z,98805.09
2023-09-17T03:00:00.968Z,98803.41
2023-09-17T03:02:29.560Z,98803.00
2023-09-17T03:04:59.626Z,98803.41
2023-09-17T03:07:27.645Z,98805.28
2023-09-17T03:10:01.299Z,98810.56
2023-09-17T03:12:29.592Z,98805.84
2023-09-17T03:14:56.698Z,98809.38
2023-09-17T03:17:23.845Z,98808.31
2023-09-17T03:19:52.614Z,98816.16
2023-09-17T03:22:19.582Z,98805.66
2023-09-17T03:24:58.017Z,98806.66
2023-09-17T03:27:33.742Z,98804.59
2023-09-17T03:30:00.756Z,98811.19
2023-09-17T03:32:28.491Z,98813.66
2023-09-17T03:34:56.999Z,98818.38
2023-09-17T03:37:24.021Z,98806.16
2023-09-17T03:40:15.620Z,98816.06
2023-09-17T03:42:47.598Z,98814.41
2023-09-17T03:45:15.170Z,98818.94
2023-09-17T03:47:43.792Z,98822.44
2023-09-17T03:50:16.314Z,98824.28
2023-09-17T03:52:48.829Z,98827.53
2023-09-17T03:55:16.778Z,98821.13
2023-09-17T03:57:46.057Z,98819.09
2023-09-17T04:00:16.977Z,98817.44
2023-09-17T04:02:46.456Z,98825.03
2023-09-17T04:05:15.306Z,98820.00
2023-09-17T04:07:45.445Z,98812.34
2023-09-17T04:10:13.425Z,98806.38
2023-09-17T04:12:41.969Z,98819.03
2023-09-17T04:15:21.384Z,98813.06
2023-09-17T04:17:51.420Z,98807.81
2023-09-17T04:20:20.122Z,98816.44
2023-09-17T04:22:51.136Z,98816.84
2023-09-17T04:25:19.971Z,98815.44
2023-09-17T04:27:49.759Z,98820.84
2023-09-17T04:30:21.208Z,98818.81
2023-09-17T04:32:49.586Z,98817.06
2023-09-17T04:35:18.581Z,98815.19
2023-09-17T04:37:48.630Z,98807.13
2023-09-17T04:40:15.941Z,98824.53
2023-09-17T04:42:45.080Z,98819.06
2023-09-17T04:45:31.685Z,98814.63
2023-09-17T04:48:00.198Z,98819.88
2023-09-17T04:50:28.716Z,98817.34
2023-09-17T04:52:56.699Z,98814.31
2023-09-17T04:55:24.422Z,98818.25
2023-09-17T04:57:52.566Z,98817.28
2023-09-17T05:00:21.420Z,98816.50
2023-09-17T05:02:49.392Z,98817.78
2023-09-17T05:05:21.063Z,98813.69
2023-09-17T05:07:50.007Z,98820.28
2023-09-17T05:10:18.069Z,98825.44
2023-09-17T05:12:45.740Z,98826.31
2023-09-17T05:15:13.392Z,98825.69
2023-09-17T05:17:41.223Z,98828.63
2023-09-17T05:20:09.964Z,98825.53
2023-09-17T05:22:38.361Z,98836.63
2023-09-17T05:25:09.433Z,98831.84
2023-09-17T05:27:36.926Z,98837.25
2023-09-17T05:30:05.142Z,98833.81
2023-09-17T05:32:32.423Z,98838.78
2023-09-17T05:35:01.076Z,98842.94
2023-09-17T05:37:28.282Z,98846.03
2023-09-17T05:39:56.741Z,98851.84
2023-09-17T05:42:23.686Z,98845.00
2023-09-17T05:44:50.621Z,98848.53
2023-09-17T05:47:19.019Z,98847.88
2023-09-17T05:49:46.046Z,98845.78
2023-09-17T05:52:13.274Z,98844.03
2023-09-17T05:54:40.598Z,98838.72
2023-09-17T05:57:08.982Z,98839.34
2023-09-17T05:59:36.438Z,98845.16
2023-09-17T06:02:03.897Z,98849.78
2023-09-17T06:04:31.085Z,98848.19
2023-09-17T06:06:58.230Z,98849.25
2023-09-17T06:09:25.146Z,98856.72
2023-09-17T06:11:52.444Z,98853.66
2023-09-17T06:14:20.909Z,98853.03
2023-09-17T06:16:57.530Z,98854.47
2023-09-17T06:19:27.095Z,98854.44
2023-09-17T06:21:55.216Z,98849.47
2023-09-17T06:24:22.464Z,98855.38
2023-09-17T06:26:49.579Z,98855.88
2023-09-17T06:29:17.161Z,98867.38
2023-09-17T06:31:46.913Z,98867.31
2023-09-17T06:34:14.190Z,98878.56
2023-09-17T06:36:41.166Z,98863.81
2023-09-17T06:39:08.839Z,98865.03
2023-09-17T06:41:38.064Z,98876.78
2023-09-17T06:44:07.024Z,98868.13
2023-09-17T06:46:34.458Z,98867.19
2023-09-17T06:49:03.084Z,98869.59
2023-09-17T06:51:29.962Z,98868.19
2023-09-17T06:53:57.144Z,98854.47
2023-09-17T06:56:26.858Z,98858.19
2023-09-17T06:58:53.787Z,98864.47
2023-09-17T07:01:20.815Z,98869.81
2023-09-17T07:03:51.434Z,98864.16
2023-09-17T07:06:20.173Z,98866.69
2023-09-17T07:08:47.778Z,98858.91
2023-09-17T07:11:14.904Z,98859.09
2023-09-17T07:13:41.935Z,98847.41
2023-09-17T07:16:09.229Z,98848.72
2023-09-17T07:18:36.258Z,98837.03
2023-09-17T07:21:05.349Z,98842.09
2023-09-17T07:23:33.979Z,98839.50
2023-09-17T07:26:01.698Z,98837.31
2023-09-17T07:28:30.441Z,98834.53
2023-09-17T07:30:58.458Z,98823.03
2023-09-17T07:33:25.782Z,98827.75
2023-09-17T07:35:53.876Z,98828.41
2023-09-17T07:38:20.924Z,98836.28
2023-09-17T07:40:49.544Z,98832.16
2023-09-17T07:43:16.672Z,98828.50
2023-09-17T07:45:43.793Z,98834.59
2023-09-17T07:48:10.944Z,98841.91
2023-09-17T07:50:37.833Z,98841.63
2023-09-17T07:53:05.381Z,98839.69
2023-09-17T07:55:32.494Z,98839.06
2023-09-17T07:58:00.874Z,98833.53
2023-09-17T08:00:28.139Z,98837.97
2023-09-17T08:02:55.151Z,98840.47
2023-09-17T08:05:22.250Z,98846.91
2023-09-17T08:07:49.762Z,98838.66
2023-09-17T08:10:16.817Z,98839.16
2023-09-17T08:12:43.744Z,98847.72
2023-09-17T08:15:12.374Z,98839.78
2023-09-17T08:17:39.341Z,98835.03
2023-09-17T08:20:10.944Z,98834.09
2023-09-17T08:22:38.926Z,98839.75
2023-09-17T08:25:07.679Z,98845.09
2023-09-17T08:27:34.576Z,98849.94
2023-09-17T08:30:08.060Z,98838.00
2023-09-17T08:32:36.347Z,98851.25
2023-09-17T08:35:04.280Z,98847.38
2023-09-17T08:37:31.319Z,98850.13
2023-09-17T08:39:58.331Z,98844.09
2023-09-17T08:42:27.739Z,98851.38
2023-09-17T08:44:58.160Z,98840.94
2023-09-17T08:47:25.366Z,98840.63
2023-09-17T08:49:53.703Z,98839.66
2023-09-17T08:52:22.032Z,98843.03
2023-09-17T08:54:50.734Z,98839.25
2023-09-17T08:57:22.946Z,98840.47
2023-09-17T08:59:58.501Z,98835.78
2023-09-17T09:02:30.609Z,98838.59
2023-09-17T09:05:01.456Z,98839.47
2023-09-17T09:07:29.765Z,98848.63
2023-09-17T09:09:58.096Z,98833.47
2023-09-17T09:12:25.723Z,98833.81
2023-09-17T09:14:54.674Z,98830.38
2023-09-17T09:17:21.672Z,98834.72
2023-09-17T09:19:48.980Z,98830.69
2023-09-17T09:22:17.274Z,98821.38
2023-09-17T09:24:47.590Z,98825.63
2023-09-17T09:27:15.311Z,98813.91
2023-09-17T09:29:45.340Z,98811.72
2023-09-17T09:32:13.210Z,98810.56
2023-09-17T09:34:42.167Z,98806.31
2023-09-17T09:37:10.078Z,98806.53
2023-09-17T09:39:39.392Z,98808.19
2023-09-17T09:42:07.631Z,98807.63
2023-09-17T09:44:36.235Z,98809.34
2023-09-17T09:47:03.947Z,98807.94
2023-09-17T09:49:40.368Z,98808.72
2023-09-17T09:52:07.339Z,98795.59
2023-09-17T09:54:34.279Z,98797.72
2023-09-17T09:57:03.176Z,98799.94
2023-09-17T09:59:30.662Z,98798.41
2023-09-17T10:01:57.852Z,98800.13
2023-09-17T10:04:25.036Z,98794.53
2023-09-17T10:06:52.232Z,98797.91
2023-09-17T10:09:19.728Z,98797.91
2023-09-17T10:11:47.649Z,98801.69
2023-09-17T10:14:16.157Z,98794.00
2023-09-17T10:16:44.632Z,98799.66
2023-09-17T10:19:19.192Z,98791.34
2023-09-17T10:21:47.903Z,98788.19
2023-09-17T10:24:16.738Z,98798.13
2023-09-17T10:26:44.824Z,98794.72
2023-09-17T10:29:13.258Z,98796.25
2023-09-17T10:31:43.563Z,98791.06
2023-09-17T10:34:14.176Z,98795.13
2023-09-17T10:36:43.518Z,98790.34
2023-09-17T10:39:11.981Z,98788.44
2023-09-17T10:41:39.501Z,98784.41
2023-09-17T10:44:08.493Z,98788.03
2023-09-17T10:46:37.821Z,98787.41
2023-09-17T10:49:08.625Z,98780.66
2023-09-17T10:51:37.010Z,98783.16
2023-09-17T10:54:05.186Z,98773.13
2023-09-17T10:56:33.195Z,98769.78
2023-09-17T10:59:01.045Z,98772.16
2023-09-17T11:01:31.134Z,98768.41
2023-09-17T11:04:03.944Z,98765.78
2023-09-17T11:06:35.990Z,98759.94
2023-09-17T11:09:05.916Z,98755.91
2023-09-17T11:11:35.980Z,98746.63
2023-09-17T11:14:06.774Z,98755.56
2023-09-17T11:16:37.295Z,98755.50
2023-09-17T11:19:06.802Z,98757.13
2023-09-17T11:21:39.315Z,98748.94
2023-09-17T11:24:11.139Z,98750.19
2023-09-17T11:26:40.279Z,98744.44
2023-09-17T11:29:08.664Z,98741.16
2023-09-17T11:31:37.331Z,98735.19
2023-09-17T11:34:11.636Z,98740.03
2023-09-17T11:36:39.974Z,98730.47
2023-09-17T11:39:08.428Z,98733.56
2023-09-17T11:41:41.706Z,98731.50
2023-09-17T11:44:10.134Z,98727.41
2023-09-17T11:46:38.554Z,98721.97
2023-09-17T11:49:09.393Z,98723.03
2023-09-17T11:51:46.476Z,98715.66
2023-09-17T11:54:17.755Z,98729.19
2023-09-17T11:56:47.916Z,98717.88
2023-09-17T11:59:18.030Z,98722.69
2023-09-17T12:01:48.582Z,98729.84
2023-09-17T12:04:20.902Z,98718.97
2023-09-17T12:06:50.396Z,98711.09
2023-09-17T12:09:22.712Z,98714.63
2023-09-17T12:11:51.551Z,98722.78
2023-09-17T12:14:20.674Z,98708.66
2023-09-17T12:16:49.428Z,98705.94
2023-09-17T12:19:18.779Z,98712.22
2023-09-17T12:21:49.063Z,98708.56
2023-09-17T12:24:27.362Z,98707.25
2023-09-17T12:27:20.633Z,98700.34
2023-09-17T12:29:52.867Z,98684.72
2023-09-17T12:32:23.178Z,98689.09
2023-09-17T12:34:51.636Z,98679.81
2023-09-17T12:37:18.627Z,98677.66
2023-09-17T12:39:51.112Z,98680.94
2023-09-17T12:42:18.637Z,98681.22
2023-09-17T12:44:45.728Z,98688.53
2023-09-17T12:47:13.299Z,98682.03
2023-09-17T12:49:41.703Z,98674.41
2023-09-17T12:52:08.923Z,98670.53
2023-09-17T12:54:36.289Z,98668.16
2023-09-17T12:57:05.641Z,98670.06
2023-09-17T12:59:33.907Z,98666.00
2023-09-17T13:02:04.750Z,98667.88
2023-09-17T13:04:36.392Z,98655.94
2023-09-17T13:07:05.304Z,98655.66
2023-09-17T13:09:33.134Z,98652.63
2023-09-17T13:12:02.231Z,98649.13
2023-09-17T13:14:32.601Z,98650.50
2023-09-17T13:17:00.124Z,98651.56
2023-09-17T13:19:27.442Z,98644.53
2023-09-17T13:21:54.850Z,98651.59
2023-09-17T13:24:22.013Z,98638.00
2023-09-17T13:26:48.988Z,98641.22
2023-09-17T13:29:16.032Z,98640.16
2023-09-17T13:31:51.256Z,98643.97
2023-09-17T13:34:20.866Z,98642.88
2023-09-17T13:36:48.586Z,98637.72
2023-09-17T13:39:15.830Z,98643.44
2023-09-17T13:41:44.036Z,98644.78
2023-09-17T13:44:11.261Z,98629.88
2023-09-17T13:46:45.816Z,98635.84
2023-09-17T13:49:14.379Z,98634.75
2023-09-17T13:51:41.370Z,98629.28
2023-09-17T13:54:08.295Z,98627.91
2023-09-17T13:56:36.788Z,98636.34
2023-09-17T13:59:04.192Z,98628.25
2023-09-17T14:01:32.046Z,98627.66
2023-09-17T14:03:59.020Z,98629.06
2023-09-17T14:06:27.269Z,98622.81
2023-09-17T14:08:54.450Z,98619.47
2023-09-17T14:11:25.338Z,98615.47
2023-09-17T14:13:52.361Z,98607.59
2023-09-17T14:16:21.324Z,98609.75
2023-09-17T14:18:51.397Z,98607.28
2023-09-17T14:21:20.476Z,98604.84
2023-09-17T14:23:48.723Z,98604.56
2023-09-17T14:26:15.775Z,98615.44
2023-09-17T14:28:42.946Z,98614.34
2023-09-17T14:31:09.904Z,98611.88
2023-09-17T14:33:36.899Z,98609.69
2023-09-17T14:36:04.340Z,98600.47
2023-09-17T14:38:31.282Z,98604.28
2023-09-17T14:40:59.721Z,98596.41
2023-09-17T14:43:26.759Z,98595.91
2023-09-17T14:45:53.754Z,98591.53
2023-09-17T14:48:20.738Z,98593.44
2023-09-17T14:50:50.222Z,98587.19
2023-09-17T14:53:17.259Z,98578.50
2023-09-17T14:55:47.546Z,98584.72
2023-09-17T14:58:18.076Z,98577.19
2023-09-17T15:00:45.402Z,98576.03
2023-09-17T15:03:13.066Z,98576.06
2023-09-17T15:05:40.824Z,98572.25
2023-09-17T15:08:07.816Z,98569.00
2023-09-17T15:10:34.817Z,98552.69
2023-09-17T15:13:01.727Z,98554.78
2023-09-17T15:15:31.009Z,98545.59
2023-09-17T15:17:59.430Z,98557.34
2023-09-17T15:20:26.833Z,98553.50
2023-09-17T15:22:53.741Z,98556.78
2023-09-17T15:25:20.742Z,98558.69
2023-09-17T15:27:47.929Z,98560.56
2023-09-17T15:30:15.032Z,98560.31
2023-09-17T15:32:43.540Z,98559.47
2023-09-17T15:35:18.063Z,98559.22
2023-09-17T15:37:47.699Z,98564.91
2023-09-17T15:40:15.216Z,98556.50
2023-09-17T15:42:45.196Z,98553.69
2023-09-17T15:45:12.210Z,98557.50
2023-09-17T15:47:41.542Z,98554.78
2023-09-17T15:50:12.761Z,98559.63
2023-09-17T15:52:40.009Z,98545.56
2023-09-17T15:55:07.753Z,98551.84
2023-09-17T15:57:34.946Z,98554.31
2023-09-17T16:00:01.927Z,98552.06
2023-09-17T16:02:39.315Z,98550.50
2023-09-17T16:05:06.884Z,98547.00
2023-09-17T16:07:35.641Z,98554.25
2023-09-17T16:10:02.613Z,98547.47
2023-09-17T16:12:29.556Z,98552.09
2023-09-17T16:14:56.516Z,98549.69
2023-09-17T16:17:23.509Z,98551.38
2023-09-17T16:19:58.461Z,98549.91
2023-09-17T16:22:26.160Z,98550.44
2023-09-17T16:24:54.792Z,98538.59
2023-09-17T16:27:22.103Z,98540.22
2023-09-17T16:29:49.131Z,98533.72
2023-09-17T16:32:16.644Z,98531.53
2023-09-17T16:34:43.907Z,98526.91
2023-09-17T16:37:10.895Z,98525.03
2023-09-17T16:39:38.349Z,98520.13
2023-09-17T16:42:06.913Z,98524.19
2023-09-17T16:44:33.876Z,98522.84
2023-09-17T16:47:01.538Z,98523.94
2023-09-17T16:49:28.507Z,98517.41
2023-09-17T16:51:55.468Z,98519.59
2023-09-17T16:54:22.506Z,98509.81
2023-09-17T16:56:49.872Z,98517.69
2023-09-17T16:59:18.403Z,98518.50
2023-09-17T17:01:46.255Z,98517.16
2023-09-17T17:04:14.088Z,98513.09
2023-09-17T17:06:41.220Z,98505.22
2023-09-17T17:09:09.287Z,98510.91
2023-09-17T17:11:36.449Z,98511.94
2023-09-17T17:14:03.494Z,98512.47
2023-09-17T17:16:32.913Z,98505.34
2023-09-17T17:19:00.042Z,98512.84
2023-09-17T17:21:26.964Z,98499.81
2023-09-17T17:23:54.135Z,98512.56
2023-09-17T17:26:21.838Z,98503.06
2023-09-17T17:28:48.964Z,98504.38
2023-09-17T17:31:16.004Z,98500.78
2023-09-17T17:33:45.444Z,98499.91
2023-09-17T17:36:12.417Z,98495.75
2023-09-17T17:38:39.328Z,98488.56
2023-09-17T17:41:08.164Z,98486.69
2023-09-17T17:43:38.109Z,98484.25
2023-09-17T17:46:05.286Z,98477.84
2023-09-17T17:48:33.052Z,98484.72
2023-09-17T17:51:01.423Z,98475.56
2023-09-17T17:53:28.400Z,98482.41
2023-09-17T17:55:55.598Z,98475.75
2023-09-17T17:58:22.504Z,98474.25
2023-09-17T18:00:50.289Z,98474.91
2023-09-17T18:03:18.284Z,98474.72
2023-09-17T18:05:45.410Z,98486.63
2023-09-17T18:08:14.081Z,98479.56
2023-09-17T18:10:41.143Z,98473.03
2023-09-17T18:13:08.070Z,98472.16
2023-09-17T18:15:36.920Z,98472.16
2023-09-17T18:18:04.083Z,98459.75
2023-09-17T18:20:31.694Z,98459.19
2023-09-17T18:22:58.775Z,98457.63
2023-09-17T18:25:27.281Z,98463.44
2023-09-17T18:27:54.330Z,98458.22
2023-09-17T18:30:21.230Z,98470.38
2023-09-17T18:32:48.384Z,98467.28
2023-09-17T18:35:15.341Z,98471.19
2023-09-17T18:37:42.784Z,98476.06
2023-09-17T18:40:10.526Z,98469.09
2023-09-17T18:42:38.883Z,98464.28
2023-09-17T18:45:09.670Z,98470.44
2023-09-17T18:47:38.153Z,98476.00
2023-09-17T18:50:06.876Z,98463.34
2023-09-17T18:52:33.981Z,98469.44
2023-09-17T18:55:02.478Z,98468.22
2023-09-17T18:57:29.528Z,98473.75
2023-09-17T18:59:58.004Z,98471.78
2023-09-17T19:02:25.170Z,98476.22
2023-09-17T19:04:52.271Z,98469.66
2023-09-17T19:07:19.315Z,98480.09
2023-09-17T19:09:46.229Z,98474.63
2023-09-17T19:12:13.250Z,98474.16
2023-09-17T19:14:41.387Z,98465.50
2023-09-17T19:17:09.881Z,98457.34
2023-09-17T19:19:36.816Z,98453.81
2023-09-17T19:22:10.388Z,98458.38
2023-09-17T19:24:38.256Z,98458.16
2023-09-17T19:27:06.068Z,98463.31
2023-09-17T19:29:33.123Z,98448.63
2023-09-17T19:32:00.212Z,98440.84
2023-09-17T19:34:28.760Z,98428.13
2023-09-17T19:36:56.934Z,98429.97
2023-09-17T19:39:23.851Z,98433.13
2023-09-17T19:41:50.815Z,98423.75
2023-09-17T19:44:19.682Z,98425.88
2023-09-17T19:46:47.975Z,98431.13
2023-09-17T19:49:14.911Z,98424.22
2023-09-17T19:51:43.196Z,98425.06
2023-09-17T19:54:11.157Z,98422.81
2023-09-17T19:56:38.436Z,98434.22
2023-09-17T19:59:06.172Z,98437.72
2023-09-17T20:01:33.186Z,98424.72
2023-09-17T20:04:00.986Z,98419.44
2023-09-17T20:06:43.609Z,98421.88
2023-09-17T20:09:22.662Z,98413.22
2023-09-17T20:11:49.638Z,98412.75
2023-09-17T20:14:19.050Z,98401.19
2023-09-17T20:16:46.124Z,98389.06
2023-09-17T20:19:13.143Z,98393.03
2023-09-17T20:21:40.219Z,98391.88
2023-09-17T20:24:07.820Z,98408.22
2023-09-17T20:26:39.128Z,98414.84
2023-09-17T20:29:06.030Z,98410.31
2023-09-17T20:31:33.167Z,98407.56
2023-09-17T20:34:00.916Z,98413.72
2023-09-17T20:36:28.112Z,98407.88
2023-09-17T20:38:55.314Z,98409.97
2023-09-17T20:41:24.162Z,98401.66
2023-09-17T20:43:53.262Z,98404.34
2023-09-17T20:46:20.168Z,98399.56
2023-09-17T20:48:47.400Z,98403.19
2023-09-17T20:51:14.324Z,98397.31
2023-09-17T20:53:41.223Z,98393.88
2023-09-17T20:56:08.237Z,98386.00
2023-09-17T20:58:36.312Z,98391.03
2023-09-17T21:01:05.258Z,98390.94
2023-09-17T21:03:32.683Z,98383.56
2023-09-17T21:05:59.774Z,98378.53
2023-09-17T21:08:26.840Z,98373.75
2023-09-17T21:10:54.036Z,98373.41
2023-09-17T21:13:21.024Z,98381.56
2023-09-17T21:15:48.240Z,98370.00
2023-09-17T21:18:16.819Z,98364.66
2023-09-17T21:20:43.815Z,98368.84
2023-09-17T21:23:10.915Z,98365.34
2023-09-17T21:25:38.222Z,98365.22
2023-09-17T21:28:06.569Z,98363.47
2023-09-17T21:30:34.328Z,98359.50
2023-09-17T21:33:01.370Z,98361.34
2023-09-17T21:35:30.318Z,98356.63
2023-09-17T21:37:57.349Z,98372.59
2023-09-17T21:40:24.286Z,98369.41
2023-09-17T21:42:51.262Z,98368.09
2023-09-17T21:45:19.875Z,98362.22
2023-09-17T21:47:47.076Z,98355.84
2023-09-17T21:50:14.106Z,98352.84
2023-09-17T21:52:42.621Z,98358.66
2023-09-17T21:55:09.919Z,98350.22
2023-09-17T21:57:36.975Z,98354.91
2023-09-17T22:00:04.692Z,98350.16
2023-09-17T22:02:31.657Z,98348.69
2023-09-17T22:04:58.816Z,98355.13
2023-09-17T22:07:25.717Z,98346.13
2023-09-17T22:09:54.180Z,98346.75
2023-09-17T22:12:21.254Z,98347.06
2023-09-17T22:14:48.360Z,98348.28
2023-09-17T22:17:17.685Z,98353.16
2023-09-17T22:19:51.842Z,98355.16
2023-09-17T22:22:18.923Z,98346.22
2023-09-17T22:24:45.918Z,98351.91
2023-09-17T22:27:15.955Z,98354.72
2023-09-17T22:29:43.160Z,98345.19
2023-09-17T22:32:10.216Z,98345.19
2023-09-17T22:34:37.251Z,98323.88
2023-09-17T22:37:04.409Z,98325.91
2023-09-17T22:39:31.311Z,98315.53
2023-09-17T22:41:58.410Z,98318.78
2023-09-17T22:44:26.783Z,98313.00
2023-09-17T22:46:53.695Z,98310.22
2023-09-17T22:49:20.762Z,98313.94
2023-09-17T22:51:47.782Z,98317.47
2023-09-17T22:54:14.696Z,98314.09
2023-09-17T22:56:41.605Z,98307.22
2023-09-17T22:59:10.106Z,98332.03
2023-09-17T23:01:42.005Z,98340.56
2023-09-17T23:04:09.110Z,98336.75
2023-09-17T23:06:36.552Z,98368.31
2023-09-17T23:09:05.085Z,98352.66
2023-09-17T23:11:32.859Z,98343.78
2023-09-17T23:14:00.355Z,98347.53
2023-09-17T23:16:27.590Z,98334.06
2023-09-17T23:18:56.875Z,98338.22
2023-09-17T23:21:23.941Z,98340.16
2023-09-17T23:23:54.248Z,98342.25
2023-09-17T23:26:24.850Z,98339.69
2023-09-17T23:28:52.239Z,98333.44
2023-09-17T23:31:19.493Z,98325.78
2023-09-17T23:33:46.501Z,98334.19
2023-09-17T23:36:14.837Z,98333.06
2023-09-17T23:38:41.783Z,98338.88
2023-09-17T23:41:09.729Z,98342.25
2023-09-17T23:43:38.853Z,98355.47
2023-09-17T23:46:05.991Z,98348.03
2023-09-17T23:48:32.930Z,98374.97
2023-09-17T23:51:01.017Z,98397.91
2023-09-17T23:53:29.513Z,98417.91
2023-09-17T23:55:57.063Z,98412.88
2023-09-17T23:58:24.041Z,98388.47
